Time;durP1;ratioP1;P1;durP2;ratioP2;P2;SDS_P1;SDS_P2;PMS_P1;PMS_P2;Temp;Humidity;BMP_temperature;BMP_pressure;BME280_temperature;BME280_humidity;BME280_pressure;Samples;Min_cycle;Max_cycle;Signal;HPM_P1;HPM_P2
2020/12/22 00:01:35;;;;;;;1.02;0.93;;;;;;;10.00;83.55;98745.31;5136093;27;20047;-64
2020/12/22 00:04:01;;;;;;;1.10;1.05;;;;;;;10.02;83.35;98751.22;5135787;27;20054;-64
2020/12/22 00:06:28;;;;;;;1.10;1.00;;;;;;;10.00;83.54;98744.47;5135946;27;20047;-64
2020/12/22 00:08:55;;;;;;;0.73;0.73;;;;;;;10.03;83.57;98752.03;5135930;27;20047;-64
2020/12/22 00:11:22;;;;;;;1.30;1.10;;;;;;;10.05;83.63;98752.66;5136002;27;20145;-64
2020/12/22 00:13:48;;;;;;;1.45;1.17;;;;;;;10.05;83.56;98760.59;5135253;27;20047;-64
2020/12/22 00:16:16;;;;;;;1.15;1.00;;;;;;;10.04;83.36;98746.56;5135520;27;20039;-64
2020/12/22 00:18:43;;;;;;;0.93;0.90;;;;;;;10.11;83.43;98752.72;5135236;27;20043;-64
2020/12/22 00:21:09;;;;;;;1.42;1.08;;;;;;;10.16;83.03;98752.13;5135499;27;20047;-64
2020/12/22 00:23:36;;;;;;;1.70;1.60;;;;;;;10.14;83.40;98748.88;5135018;28;20043;-64
2020/12/22 00:26:03;;;;;;;1.25;1.13;;;;;;;10.15;83.53;98753.97;5116434;28;20051;-64
2020/12/22 00:28:30;;;;;;;1.20;1.10;;;;;;;10.12;83.26;98738.50;5135007;27;20556;-64
2020/12/22 00:30:57;;;;;;;1.00;0.90;;;;;;;10.15;83.45;98748.69;5134431;27;20035;-64
2020/12/22 00:33:24;;;;;;;1.00;0.90;;;;;;;10.17;83.63;98756.44;5115945;28;20054;-64
2020/12/22 00:35:51;;;;;;;1.00;0.85;;;;;;;10.17;83.86;98748.50;5135000;28;20404;-64
2020/12/22 00:38:18;;;;;;;0.50;0.47;;;;;;;10.16;83.70;98744.22;5116622;28;20137;-64
2020/12/22 00:40:45;;;;;;;0.70;0.70;;;;;;;10.16;83.51;98747.69;5135660;28;20410;-64
2020/12/22 00:43:11;;;;;;;0.82;0.82;;;;;;;10.18;83.76;98750.13;5135673;28;20043;-64
2020/12/22 00:45:38;;;;;;;1.00;0.90;;;;;;;10.24;83.43;98767.03;5135112;28;20051;-64
2020/12/22 00:48:23;;;;;;;0.65;0.65;;;;;;;10.26;83.04;98755.31;5117782;28;20092;-64
2020/12/22 00:50:50;;;;;;;0.70;0.70;;;;;;;10.27;83.24;98751.66;5117108;28;20497;-64
2020/12/22 00:53:17;;;;;;;0.80;0.70;;;;;;;10.26;83.40;98742.09;5135973;28;20055;-64
2020/12/22 00:55:45;;;;;;;0.95;0.70;;;;;;;10.29;83.36;98754.94;5135177;27;20043;-64
2020/12/22 00:58:12;;;;;;;0.70;0.70;;;;;;;10.30;83.33;98756.56;5117299;28;20051;-64
2020/12/22 01:00:39;;;;;;;0.70;0.70;;;;;;;10.31;83.55;98767.94;5117678;28;20072;-64
2020/12/22 01:03:06;;;;;;;0.80;0.80;;;;;;;10.32;83.31;98749.25;5135712;28;20035;-64
2020/12/22 01:05:33;;;;;;;0.70;0.70;;;;;;;10.33;83.49;98753.53;5116957;28;20062;-64
2020/12/22 01:08:01;;;;;;;0.90;0.90;;;;;;;10.35;83.35;98763.91;5117631;28;20079;-64
2020/12/22 01:10:27;;;;;;;1.40;0.95;;;;;;;10.34;83.31;98763.09;5117084;28;20092;-64
2020/12/22 01:12:54;;;;;;;0.98;0.90;;;;;;;10.32;83.32;98767.75;5134602;28;20035;-64
2020/12/22 01:15:21;;;;;;;0.73;0.70;;;;;;;10.36;83.62;98765.53;5134867;28;20066;-64
2020/12/22 01:17:48;;;;;;;1.80;0.80;;;;;;;10.38;83.42;98758.25;5135612;27;20039;-64
2020/12/22 01:20:15;;;;;;;0.50;0.50;;;;;;;10.38;83.57;98763.53;5137080;28;20039;-64
2020/12/22 01:22:42;;;;;;;1.15;0.70;;;;;;;10.37;83.51;98772.47;5135321;28;20043;-64
2020/12/22 01:25:10;;;;;;;0.50;0.50;;;;;;;10.33;83.66;98753.53;5134454;28;20047;-64
2020/12/22 01:27:37;;;;;;;1.08;0.52;;;;;;;10.33;83.54;98748.25;5133872;28;20047;-64
2020/12/22 01:30:03;;;;;;;0.60;0.60;;;;;;;10.31;83.81;98770.59;5134619;28;20047;-65
2020/12/22 01:32:30;;;;;;;0.50;0.50;;;;;;;10.32;84.08;98773.03;5134766;28;20047;-64
2020/12/22 01:34:57;;;;;;;1.38;0.50;;;;;;;10.31;83.81;98763.47;5133576;27;20043;-64
2020/12/22 01:37:24;;;;;;;0.45;0.45;;;;;;;10.34;84.28;98749.06;5134031;27;20511;-64
2020/12/22 01:39:50;;;;;;;0.50;0.50;;;;;;;10.34;84.25;98762.28;5118469;27;20050;-64
2020/12/22 01:42:18;;;;;;;0.73;0.65;;;;;;;10.37;84.25;98759.25;5136671;27;20557;-64
2020/12/22 01:44:45;;;;;;;0.50;0.50;;;;;;;10.36;84.02;98763.69;5136257;27;20035;-64
2020/12/22 01:47:12;;;;;;;0.98;0.68;;;;;;;10.36;84.07;98761.06;5136578;27;20051;-64
2020/12/22 01:49:40;;;;;;;0.57;0.55;;;;;;;10.37;83.92;98764.53;5137686;27;20096;-64
2020/12/22 01:52:07;;;;;;;0.50;0.50;;;;;;;10.38;83.96;98755.59;5137565;27;20050;-64
2020/12/22 01:54:34;;;;;;;0.93;0.60;;;;;;;10.42;84.28;98754.22;5136871;27;20050;-64
2020/12/22 01:57:10;;;;;;;0.70;0.60;;;;;;;10.43;84.21;98763.75;5119862;27;20047;-64
2020/12/22 01:59:37;;;;;;;0.60;0.55;;;;;;;10.41;84.00;98753.41;5137476;27;20043;-64
2020/12/22 02:02:04;;;;;;;0.63;0.63;;;;;;;10.45;83.83;98750.34;5119240;27;20143;-64
2020/12/22 02:04:31;;;;;;;0.75;0.60;;;;;;;10.49;83.83;98762.16;5118760;27;20051;-64
2020/12/22 02:06:59;;;;;;;2.80;0.70;;;;;;;10.51;83.80;98754.88;5137772;27;20046;-64
2020/12/22 02:09:25;;;;;;;0.60;0.60;;;;;;;10.51;83.72;98760.97;5137568;27;20047;-64
2020/12/22 02:11:52;;;;;;;0.85;0.70;;;;;;;10.51;84.11;98779.47;5137221;27;20047;-64
2020/12/22 02:14:19;;;;;;;1.00;0.70;;;;;;;10.51;84.09;98774.19;5118173;27;20163;-64
2020/12/22 02:16:46;;;;;;;0.60;0.60;;;;;;;10.51;83.95;98778.66;5118624;27;20039;-64
2020/12/22 02:19:23;;;;;;;0.68;0.65;;;;;;;10.53;84.25;98771.34;5137195;27;20043;-64
2020/12/22 02:21:51;;;;;;;0.57;0.57;;;;;;;10.55;84.25;98761.41;5118690;27;20051;-64
2020/12/22 02:24:18;;;;;;;0.75;0.55;;;;;;;10.53;84.18;98744.91;5136536;27;20047;-64
2020/12/22 02:26:44;;;;;;;0.50;0.50;;;;;;;10.50;84.29;98769.91;5136230;27;20047;-64
2020/12/22 02:29:11;;;;;;;0.70;0.70;;;;;;;10.54;84.34;98760.59;5136553;27;20035;-64
2020/12/22 02:31:38;;;;;;;0.50;0.50;;;;;;;10.56;84.08;98760.38;5136620;27;20043;-64
2020/12/22 02:34:05;;;;;;;0.60;0.60;;;;;;;10.51;84.38;98760.16;5136946;27;20095;-64
2020/12/22 02:36:33;;;;;;;0.50;0.50;;;;;;;10.51;84.24;98768.91;5136751;27;20054;-64
2020/12/22 02:39:01;;;;;;;0.90;0.55;;;;;;;10.54;83.93;98755.31;5136345;27;20035;-65
2020/12/22 02:41:28;;;;;;;0.52;0.52;;;;;;;10.54;84.65;98757.94;5136685;27;20398;-64
2020/12/22 02:43:54;;;;;;;0.63;0.63;;;;;;;10.59;84.48;98744.16;5119091;27;20051;-65
2020/12/22 02:46:21;;;;;;;0.50;0.50;;;;;;;10.59;84.16;98746.78;5138626;27;20050;-64
2020/12/22 02:48:48;;;;;;;0.70;0.70;;;;;;;10.62;84.31;98749.88;5136787;27;20039;-63
2020/12/22 02:51:15;;;;;;;0.43;0.43;;;;;;;10.63;83.82;98751.50;5137043;27;20110;-64
2020/12/22 02:53:43;;;;;;;0.57;0.57;;;;;;;10.62;84.05;98749.88;5136103;27;20047;-64
2020/12/22 02:56:10;;;;;;;0.80;0.80;;;;;;;10.62;83.84;98746.41;5136579;27;20035;-64
2020/12/22 02:58:37;;;;;;;0.50;0.50;;;;;;;10.67;84.02;98751.94;5136380;27;20035;-64
2020/12/22 03:01:05;;;;;;;0.50;0.50;;;;;;;10.68;84.19;98748.28;5136830;27;20043;-64
2020/12/22 03:03:32;;;;;;;0.60;0.60;;;;;;;10.69;84.13;98771.03;5118681;27;20527;-64
2020/12/22 03:05:59;;;;;;;0.50;0.43;;;;;;;10.71;84.05;98774.31;5136103;27;20503;-64
2020/12/22 03:08:25;;;;;;;0.60;0.60;;;;;;;10.71;84.25;98770.88;5117258;27;20043;-64
2020/12/22 03:10:52;;;;;;;0.50;0.50;;;;;;;10.73;84.08;98763.53;5135840;27;20035;-64
2020/12/22 03:13:20;;;;;;;0.55;0.50;;;;;;;10.73;84.09;98755.63;5135183;27;20051;-64
2020/12/22 03:15:46;;;;;;;1.02;0.68;;;;;;;10.72;84.27;98754.00;5135758;27;20043;-64
2020/12/22 03:18:13;;;;;;;0.60;0.60;;;;;;;10.73;83.93;98763.53;5135430;27;20042;-64
2020/12/22 03:20:40;;;;;;;1.48;0.60;;;;;;;10.75;83.90;98759.72;5135430;27;20046;-64
2020/12/22 03:23:06;;;;;;;0.70;0.70;;;;;;;10.77;84.11;98757.66;5117112;27;20085;-64
2020/12/22 03:25:33;;;;;;;0.57;0.57;;;;;;;10.80;84.06;98756.47;5116656;27;20039;-64
2020/12/22 03:28:00;;;;;;;1.40;0.73;;;;;;;10.82;83.96;98750.00;5135287;27;20050;-64
2020/12/22 03:30:27;;;;;;;1.15;0.70;;;;;;;10.79;83.85;98768.06;5116924;27;20516;-64
2020/12/22 03:32:54;;;;;;;1.55;0.77;;;;;;;10.79;84.21;98760.94;5134837;27;20054;-64
2020/12/22 03:35:21;;;;;;;0.80;0.70;;;;;;;10.81;83.86;98756.25;5133991;27;20504;-64
2020/12/22 03:37:48;;;;;;;0.82;0.80;;;;;;;10.83;84.12;98761.38;5134278;27;20046;-64
2020/12/22 03:40:16;;;;;;;0.80;0.80;;;;;;;10.84;84.09;98763.81;5134286;27;20042;-64
2020/12/22 03:42:43;;;;;;;0.70;0.70;;;;;;;10.81;84.12;98763.38;5134243;27;20043;-64
2020/12/22 03:45:10;;;;;;;0.50;0.50;;;;;;;10.82;84.16;98771.16;5133926;27;20035;-64
2020/12/22 03:47:37;;;;;;;1.98;0.73;;;;;;;10.82;84.22;98760.56;5134205;27;20043;-64
2020/12/22 03:50:19;;;;;;;0.75;0.75;;;;;;;10.85;84.31;98754.88;5134030;27;20040;-64
2020/12/22 03:52:46;;;;;;;1.92;0.90;;;;;;;10.86;84.34;98759.16;5134402;27;20407;-64
2020/12/22 03:55:13;;;;;;;1.25;0.75;;;;;;;10.87;84.63;98758.16;5133484;27;20045;-64
2020/12/22 03:57:40;;;;;;;2.75;0.82;;;;;;;10.88;84.54;98745.75;5133746;27;20043;-64
2020/12/22 04:00:07;;;;;;;1.40;0.88;;;;;;;10.90;84.39;98736.59;5133247;27;20488;-64
2020/12/22 04:02:34;;;;;;;0.98;0.90;;;;;;;10.95;84.67;98743.94;5133917;27;20374;-64
2020/12/22 04:05:02;;;;;;;0.60;0.60;;;;;;;10.93;84.05;98745.97;5133497;27;20039;-64
2020/12/22 04:07:30;;;;;;;0.85;0.50;;;;;;;10.90;84.04;98741.09;5133850;27;20085;-64
2020/12/22 04:09:56;;;;;;;0.80;0.80;;;;;;;10.91;84.06;98734.78;5133560;27;20039;-64
2020/12/22 04:12:23;;;;;;;0.45;0.45;;;;;;;10.90;83.67;98739.25;5133768;27;20067;-64
2020/12/22 04:14:50;;;;;;;1.08;0.55;;;;;;;10.93;83.77;98731.91;5133354;27;20101;-64
2020/12/22 04:17:17;;;;;;;0.40;0.40;;;;;;;10.91;83.58;98732.94;5115606;28;20051;-64
2020/12/22 04:19:44;;;;;;;0.60;0.60;;;;;;;10.96;83.78;98728.91;5133770;27;20035;-64
2020/12/22 04:22:12;;;;;;;0.88;0.55;;;;;;;10.89;83.68;98728.84;5133538;27;20050;-64
2020/12/22 04:24:38;;;;;;;1.08;0.40;;;;;;;10.84;83.99;98737.38;5133283;27;20078;-64
2020/12/22 04:27:05;;;;;;;0.30;0.30;;;;;;;10.81;84.22;98740.41;5115328;28;20047;-64
2020/12/22 04:29:32;;;;;;;0.38;0.38;;;;;;;10.82;84.52;98733.31;5114973;28;20416;-64
2020/12/22 04:31:59;;;;;;;0.60;0.60;;;;;;;10.82;84.18;98726.19;5133819;28;20209;-64
2020/12/22 04:34:26;;;;;;;0.40;0.40;;;;;;;10.83;84.44;98734.94;5133646;28;20078;-64
2020/12/22 04:36:53;;;;;;;0.60;0.60;;;;;;;10.83;84.73;98737.59;5133678;28;20122;-64
2020/12/22 04:39:21;;;;;;;0.35;0.35;;;;;;;10.86;84.46;98739.84;5115626;28;20446;-64
2020/12/22 04:41:49;;;;;;;1.15;0.70;;;;;;;10.85;84.46;98749.56;5115660;28;20145;-64
2020/12/22 04:44:16;;;;;;;0.50;0.50;;;;;;;10.87;84.69;98754.69;5115740;28;20135;-64
2020/12/22 04:46:49;;;;;;;0.30;0.30;;;;;;;10.86;84.38;98756.53;5134573;28;20075;-64
2020/12/22 04:49:20;;;;;;;0.45;0.45;;;;;;;10.85;84.66;98757.50;5138405;28;20051;-64
2020/12/22 04:51:49;;;;;;;2.90;1.77;;;;;;;10.86;84.48;98759.16;5120938;28;20094;-64
2020/12/22 04:54:33;;;;;;;0.65;0.50;;;;;;;10.89;84.29;98750.81;5139179;27;20039;-64
2020/12/22 04:57:00;;;;;;;0.57;0.57;;;;;;;10.89;84.26;98761.41;5138739;28;20099;-64
2020/12/22 04:59:29;;;;;;;0.40;0.40;;;;;;;10.85;84.40;98765.44;5139355;28;20100;-64
2020/12/22 05:01:56;;;;;;;1.50;0.80;;;;;;;10.83;84.36;98767.47;5138556;28;20086;-64
2020/12/22 05:04:24;;;;;;;0.73;0.50;;;;;;;10.82;84.41;98771.16;5119769;28;20067;-64
2020/12/22 05:06:50;;;;;;;0.70;0.65;;;;;;;10.82;84.63;98771.16;5140959;28;20492;-64
2020/12/22 05:09:17;;;;;;;0.90;0.50;;;;;;;10.82;84.87;98780.91;5140264;27;20039;-64
2020/12/22 05:11:44;;;;;;;0.32;0.32;;;;;;;10.82;84.65;98780.91;5140052;27;20049;-64
2020/12/22 05:14:13;;;;;;;0.55;0.40;;;;;;;10.82;84.73;98781.72;5143224;27;20047;-64
2020/12/22 05:16:39;;;;;;;0.30;0.30;;;;;;;10.85;84.54;98780.50;5125936;27;20050;-64
2020/12/22 05:19:06;;;;;;;0.40;0.40;;;;;;;10.84;84.48;98778.88;5144174;27;20031;-64
2020/12/22 05:21:36;;;;;;;0.82;0.50;;;;;;;10.86;84.40;98771.56;5143724;27;20595;-64
2020/12/22 05:24:04;;;;;;;1.02;0.73;;;;;;;10.87;84.72;98792.53;5142945;27;20039;-67
2020/12/22 05:26:33;;;;;;;0.85;0.60;;;;;;;10.87;84.45;98795.16;5136956;27;20039;-64
2020/12/22 05:29:11;;;;;;;0.30;0.30;;;;;;;10.89;84.60;98795.78;5136552;27;20493;-64
2020/12/22 05:31:43;;;;;;;0.30;0.30;;;;;;;10.92;85.08;98786.66;5136554;27;20054;-64
2020/12/22 05:34:11;;;;;;;0.50;0.50;;;;;;;10.96;84.36;98800.31;5136064;27;20050;-65
2020/12/22 05:36:40;;;;;;;0.60;0.60;;;;;;;10.97;84.87;98788.72;5136181;27;20043;-64
2020/12/22 05:39:08;;;;;;;0.55;0.50;;;;;;;11.02;84.39;98803.00;5135988;27;20039;-64
2020/12/22 05:41:36;;;;;;;0.35;0.30;;;;;;;11.03;84.37;98796.69;5117561;27;20054;-65
2020/12/22 05:44:03;;;;;;;0.43;0.43;;;;;;;11.08;84.33;98790.81;5136030;27;20078;-65
2020/12/22 05:46:34;;;;;;;0.88;0.50;;;;;;;11.11;84.42;98796.53;5136174;27;20064;-65
2020/12/22 05:49:01;;;;;;;1.48;0.90;;;;;;;11.12;84.12;98802.63;5136133;27;20058;-66
2020/12/22 05:51:37;;;;;;;0.50;0.50;;;;;;;11.14;84.16;98792.66;5136020;27;20096;-64
2020/12/22 05:54:05;;;;;;;0.60;0.60;;;;;;;11.14;83.75;98804.09;5135518;27;20047;-64
2020/12/22 05:56:33;;;;;;;2.17;1.15;;;;;;;11.21;84.15;98800.63;5135987;27;20051;-65
2020/12/22 05:59:00;;;;;;;0.57;0.50;;;;;;;11.21;83.60;98798.81;5136077;27;20051;-65
2020/12/22 06:01:32;;;;;;;0.40;0.40;;;;;;;11.22;83.71;98802.25;5135863;27;20043;-65
2020/12/22 06:04:00;;;;;;;1.23;0.40;;;;;;;11.21;83.71;98798.81;5135447;27;20047;-65
2020/12/22 06:06:29;;;;;;;0.50;0.50;;;;;;;11.24;83.73;98792.31;5135786;27;20043;-65
2020/12/22 06:08:56;;;;;;;0.40;0.40;;;;;;;11.25;83.83;98809.81;5135995;27;20047;-65
2020/12/22 06:11:23;;;;;;;0.57;0.57;;;;;;;11.24;83.70;98809.00;5135881;27;20066;-65
2020/12/22 06:13:51;;;;;;;1.00;0.70;;;;;;;11.31;83.59;98801.91;5135538;27;20050;-65
2020/12/22 06:16:18;;;;;;;0.60;0.50;;;;;;;11.31;83.47;98812.50;5117188;27;20047;-65
2020/12/22 06:18:48;;;;;;;0.60;0.60;;;;;;;11.33;83.26;98815.75;5135389;27;20039;-65
2020/12/22 06:21:16;;;;;;;0.50;0.50;;;;;;;11.36;83.30;98823.31;5135463;27;20080;-65
2020/12/22 06:23:44;;;;;;;0.50;0.50;;;;;;;11.37;83.25;98814.34;5134757;27;20526;-65
2020/12/22 06:26:12;;;;;;;1.10;0.70;;;;;;;11.38;83.32;98813.31;5135298;27;20058;-65
2020/12/22 06:28:39;;;;;;;0.40;0.40;;;;;;;11.41;83.02;98809.47;5135427;27;20043;-65
2020/12/22 06:31:17;;;;;;;0.80;0.70;;;;;;;11.43;83.40;98812.75;5136688;27;20070;-65
2020/12/22 06:33:44;;;;;;;0.73;0.70;;;;;;;11.45;83.19;98804.59;5135063;27;20039;-65
2020/12/22 06:36:13;;;;;;;0.50;0.50;;;;;;;11.44;83.36;98798.50;5135208;27;20488;-65
2020/12/22 06:38:55;;;;;;;0.70;0.70;;;;;;;11.45;83.40;98805.41;5135117;27;20043;-65
2020/12/22 06:41:46;;;;;;;0.77;0.75;;;;;;;11.38;83.68;98796.63;5135058;27;20050;-65
2020/12/22 06:44:16;;;;;;;0.70;0.70;;;;;;;11.40;83.05;98808.66;5134830;27;20051;-65
2020/12/22 06:46:44;;;;;;;0.85;0.70;;;;;;;11.38;83.31;98797.44;5116645;27;20075;-64
2020/12/22 06:49:11;;;;;;;0.68;0.68;;;;;;;11.38;83.31;98808.03;5134885;27;20035;-65
2020/12/22 06:51:40;;;;;;;0.70;0.70;;;;;;;11.35;83.31;98802.34;5134833;27;20050;-64
2020/12/22 06:54:36;;;;;;;0.60;0.60;;;;;;;11.37;83.17;98810.88;5134821;27;20061;-65
2020/12/22 06:57:04;;;;;;;0.60;0.60;;;;;;;11.36;83.25;98811.91;5134800;27;20059;-64
2020/12/22 06:59:48;;;;;;;0.80;0.70;;;;;;;11.38;83.31;98805.38;5134482;27;20050;-64
2020/12/22 07:02:31;;;;;;;;;;;;;;;11.32;83.77;98808.84;5135098;27;20400;-65
2020/12/22 07:04:58;;;;;;;0.50;0.50;;;;;;;11.35;83.31;98821.69;5134146;27;19919;-64
2020/12/22 07:07:26;;;;;;;0.50;0.50;;;;;;;11.32;83.94;98803.53;5116054;27;20062;-65
2020/12/22 07:10:03;;;;;;;0.60;0.60;;;;;;;11.36;84.02;98806.63;5134467;27;20209;-65
2020/12/22 07:12:31;;;;;;;0.50;0.50;;;;;;;11.34;83.75;98813.91;5134355;27;20050;-65
2020/12/22 07:14:58;;;;;;;0.63;0.50;;;;;;;11.35;83.61;98812.94;5134278;27;20054;-65
2020/12/22 07:17:25;;;;;;;1.38;0.57;;;;;;;11.38;83.88;98805.38;5134321;27;20046;-65
2020/12/22 07:19:54;;;;;;;0.50;0.50;;;;;;;11.36;83.77;98807.44;5115860;27;20039;-64
2020/12/22 07:22:35;;;;;;;0.60;0.60;;;;;;;11.32;83.81;98810.66;5134481;27;20057;-64
2020/12/22 07:25:03;;;;;;;0.40;0.40;;;;;;;11.33;84.25;98822.88;5115609;27;20039;-65
2020/12/22 07:27:31;;;;;;;0.60;0.60;;;;;;;11.35;83.89;98815.56;5134260;27;20060;-65
2020/12/22 07:29:58;;;;;;;0.80;0.50;;;;;;;11.32;84.38;98824.72;5115513;27;20043;-65
2020/12/22 07:32:24;;;;;;;0.70;0.52;;;;;;;11.34;84.24;98814.72;5133943;27;20408;-65
2020/12/22 07:34:51;;;;;;;0.70;0.50;;;;;;;11.36;84.17;98833.88;5132929;27;20039;-65
2020/12/22 07:37:18;;;;;;;0.75;0.70;;;;;;;11.38;83.72;98833.69;5133695;27;20039;-65
2020/12/22 07:39:46;;;;;;;0.40;0.40;;;;;;;11.44;83.63;98834.75;5133711;27;20499;-65
2020/12/22 07:42:14;;;;;;;0.40;0.40;;;;;;;11.44;83.90;98840.03;5133705;27;20047;-65
2020/12/22 07:44:42;;;;;;;0.57;0.40;;;;;;;11.45;83.87;98847.78;5114876;27;20055;-65
2020/12/22 07:47:09;;;;;;;3.90;0.85;;;;;;;11.45;83.97;98845.13;5133561;27;20039;-65
2020/12/22 07:49:36;;;;;;;0.60;0.60;;;;;;;11.45;83.26;98847.78;5133394;27;20047;-65
2020/12/22 07:52:03;;;;;;;1.23;0.50;;;;;;;11.46;83.53;98844.09;5133387;27;20051;-65
2020/12/22 07:54:30;;;;;;;0.50;0.50;;;;;;;11.46;83.32;98867.13;5133065;27;20074;-65
2020/12/22 07:56:58;;;;;;;0.88;0.50;;;;;;;11.50;83.31;98863.06;5133355;27;20043;-65
2020/12/22 07:59:26;;;;;;;0.63;0.63;;;;;;;11.49;83.56;98880.78;5133317;27;20038;-65
2020/12/22 08:01:54;;;;;;;0.55;0.55;;;;;;;11.46;83.14;98867.13;5133187;27;20547;-65
2020/12/22 08:04:22;;;;;;;0.90;0.80;;;;;;;11.47;83.81;98884.63;5114432;27;20058;-65
2020/12/22 08:06:53;;;;;;;0.60;0.60;;;;;;;11.47;83.81;98874.03;5114714;27;20051;-65
2020/12/22 08:09:32;;;;;;;0.50;0.50;;;;;;;11.46;83.83;98883.00;5133206;27;20047;-65
2020/12/22 08:12:01;;;;;;;0.50;0.50;;;;;;;11.48;84.09;98881.81;5114703;28;20053;-64
2020/12/22 08:14:30;;;;;;;0.70;0.70;;;;;;;11.47;84.28;98881.97;5132564;27;20042;-65
2020/12/22 08:17:00;;;;;;;0.60;0.60;;;;;;;11.43;83.91;98888.69;5133088;27;20047;-65
2020/12/22 08:19:30;;;;;;;0.52;0.52;;;;;;;11.43;83.95;98894.81;5132939;27;20485;-65
2020/12/22 08:21:59;;;;;;;0.50;0.50;;;;;;;11.46;84.05;98891.75;5133005;27;20681;-65
2020/12/22 08:24:28;;;;;;;0.60;0.60;;;;;;;11.49;83.78;98888.72;5132642;27;20043;-65
2020/12/22 08:26:55;;;;;;;0.68;0.68;;;;;;;11.49;83.74;98890.56;5132993;27;20039;-65
2020/12/22 08:29:23;;;;;;;0.40;0.40;;;;;;;11.46;83.93;98886.47;5133269;28;20369;-65
2020/12/22 08:31:54;;;;;;;3.30;0.70;;;;;;;11.51;84.05;98901.75;5133001;28;20047;-65
2020/12/22 08:34:21;;;;;;;1.65;0.52;;;;;;;11.50;84.03;98897.47;5132799;28;20424;-65
2020/12/22 08:36:48;;;;;;;0.40;0.40;;;;;;;11.54;83.79;98894.25;5132924;28;20067;-65
2020/12/22 08:39:21;;;;;;;0.88;0.50;;;;;;;11.55;83.85;98893.25;5114380;28;20046;-65
2020/12/22 08:41:50;;;;;;;0.57;0.50;;;;;;;11.63;83.72;98885.13;5132917;28;20043;-65
2020/12/22 08:44:18;;;;;;;0.40;0.40;;;;;;;11.64;83.55;98893.91;5113993;28;20057;-65
2020/12/22 08:46:46;;;;;;;0.50;0.50;;;;;;;11.67;83.73;98898.78;5133980;27;20035;-66
2020/12/22 08:49:15;;;;;;;0.52;0.52;;;;;;;11.69;83.62;98888.81;5137086;27;20051;-65
2020/12/22 08:51:43;;;;;;;0.60;0.60;;;;;;;11.68;83.79;98903.06;5136865;27;20035;-64
2020/12/22 08:54:10;;;;;;;0.55;0.55;;;;;;;11.68;83.60;98907.56;5118141;27;20047;-65
2020/12/22 08:56:38;;;;;;;0.88;0.70;;;;;;;11.66;83.38;98900.59;5136808;27;20050;-65
2020/12/22 08:59:06;;;;;;;0.50;0.50;;;;;;;11.71;83.31;98912.44;5136703;27;20458;-65
2020/12/22 09:01:40;;;;;;;0.90;0.70;;;;;;;11.78;83.79;98908.81;5136836;27;20043;-65
2020/12/22 09:04:08;;;;;;;0.60;0.60;;;;;;;11.80;83.58;98916.56;5136325;27;20047;-65
2020/12/22 09:06:37;;;;;;;1.02;0.70;;;;;;;11.82;83.53;98922.47;5136466;27;20046;-65
2020/12/22 09:09:11;;;;;;;1.75;0.73;;;;;;;11.80;83.32;98919.22;5118218;27;20047;-65
2020/12/22 09:11:39;;;;;;;1.63;0.60;;;;;;;11.82;83.48;98907.41;5136508;27;20054;-65
2020/12/22 09:14:11;;;;;;;0.60;0.60;;;;;;;11.81;83.63;98923.50;5135930;27;20046;-65
2020/12/22 09:16:52;;;;;;;0.50;0.50;;;;;;;11.79;83.54;98928.97;5136410;27;20053;-65
2020/12/22 09:19:22;;;;;;;1.27;0.60;;;;;;;11.83;83.92;98924.13;5117852;27;20045;-64
2020/12/22 09:21:58;;;;;;;0.60;0.60;;;;;;;11.87;83.47;98928.03;5136292;27;20061;-65
2020/12/22 09:24:24;;;;;;;1.40;0.70;;;;;;;11.88;83.53;98913.78;5135904;27;20050;-65
2020/12/22 09:26:53;;;;;;;0.55;0.55;;;;;;;11.87;83.32;98912.94;5136218;27;20051;-65
2020/12/22 09:29:19;;;;;;;0.80;0.80;;;;;;;11.92;83.16;98928.28;5135949;27;20438;-65
2020/12/22 09:31:46;;;;;;;1.27;0.68;;;;;;;11.92;83.42;98927.44;5136002;27;20051;-65
2020/12/22 09:34:13;;;;;;;0.65;0.65;;;;;;;11.95;82.92;98924.38;5135810;27;20057;-65
2020/12/22 09:36:40;;;;;;;0.60;0.60;;;;;;;11.98;83.14;98937.25;5136204;27;20058;-65
2020/12/22 09:39:08;;;;;;;0.60;0.60;;;;;;;12.02;83.16;98936.66;5135771;27;20046;-65
2020/12/22 09:41:41;;;;;;;0.60;0.60;;;;;;;12.14;82.97;98935.06;5135840;27;20043;-65
2020/12/22 09:44:08;;;;;;;1.05;0.75;;;;;;;12.20;82.33;98924.66;5135732;27;20054;-65
2020/12/22 09:46:35;;;;;;;0.50;0.50;;;;;;;12.27;82.20;98933.47;5135557;27;20050;-65
2020/12/22 09:49:02;;;;;;;0.68;0.68;;;;;;;12.23;82.43;98945.47;5135866;27;20047;-65
2020/12/22 09:51:29;;;;;;;0.50;0.50;;;;;;;12.27;82.67;98944.88;5135898;27;20145;-65
2020/12/22 09:54:14;;;;;;;0.50;0.50;;;;;;;12.21;82.42;98956.28;5135489;27;20078;-65
2020/12/22 09:56:41;;;;;;;0.70;0.70;;;;;;;12.22;82.69;98949.16;5135535;27;20283;-65
2020/12/22 09:59:08;;;;;;;0.98;0.75;;;;;;;12.20;82.81;98956.47;5116285;27;20450;-65
2020/12/22 10:01:35;;;;;;;0.80;0.80;;;;;;;12.23;83.07;98954.25;5135492;27;20100;-65
2020/12/22 10:04:02;;;;;;;1.35;0.68;;;;;;;12.23;83.06;98959.53;5135228;27;20050;-65
2020/12/22 10:06:29;;;;;;;4.55;3.15;;;;;;;12.19;82.94;98957.50;5135442;27;20042;-64
2020/12/22 10:08:56;;;;;;;1.08;0.95;;;;;;;12.26;83.34;98956.50;5135423;27;20054;-65
2020/12/22 10:11:25;;;;;;;0.70;0.70;;;;;;;12.28;83.17;98958.94;5135503;27;20057;-65
2020/12/22 10:13:53;;;;;;;3.25;2.08;;;;;;;12.37;82.98;98945.31;5135088;27;20419;-65
2020/12/22 10:16:21;;;;;;;1.00;0.90;;;;;;;12.34;82.41;98963.47;5135252;27;20043;-66
2020/12/22 10:18:48;;;;;;;2.28;1.73;;;;;;;12.32;82.57;98955.69;5116878;27;20054;-65
2020/12/22 10:21:17;;;;;;;0.80;0.70;;;;;;;12.31;82.56;98961.22;5135250;27;20042;-65
2020/12/22 10:23:47;;;;;;;1.70;1.60;;;;;;;12.33;82.55;98967.94;5134140;27;20035;-65
2020/12/22 10:26:15;;;;;;;2.22;2.03;;;;;;;12.33;82.55;98965.31;5135076;27;20039;-65
2020/12/22 10:28:43;;;;;;;1.45;1.10;;;;;;;12.31;82.74;98954.06;5134822;27;20043;-65
2020/12/22 10:31:14;;;;;;;1.10;0.93;;;;;;;12.30;82.47;98960.38;5134957;27;20039;-65
2020/12/22 10:33:42;;;;;;;0.95;0.95;;;;;;;12.31;82.33;98963.84;5134749;27;20043;-65
2020/12/22 10:36:11;;;;;;;3.08;2.88;;;;;;;12.37;82.46;98966.53;5134663;27;20074;-65
2020/12/22 10:38:49;;;;;;;1.48;1.38;;;;;;;12.43;82.47;98972.84;5134756;27;20043;-65
2020/12/22 10:41:15;;;;;;;1.00;0.90;;;;;;;12.49;82.16;98966.78;5134495;27;20407;-65
2020/12/22 10:43:43;;;;;;;0.90;0.90;;;;;;;12.48;82.15;98966.94;5134318;27;20397;-65
2020/12/22 10:46:10;;;;;;;1.75;0.82;;;;;;;12.40;82.17;98968.75;5134604;27;20047;-65
2020/12/22 10:48:37;;;;;;;1.27;0.70;;;;;;;12.38;82.57;98983.25;5134781;27;20039;-65
2020/12/22 10:51:04;;;;;;;1.52;0.85;;;;;;;12.34;82.39;98979.38;5134374;27;20043;-65
2020/12/22 10:53:31;;;;;;;0.50;0.50;;;;;;;12.29;82.37;98976.50;5134282;27;20400;-65
2020/12/22 10:55:58;;;;;;;2.03;1.92;;;;;;;12.27;82.51;98981.16;5134483;27;20043;-65
2020/12/22 10:58:25;;;;;;;2.70;2.50;;;;;;;12.26;83.04;98979.53;5134330;27;20069;-65
2020/12/22 11:00:52;;;;;;;0.98;0.90;;;;;;;12.23;83.17;98967.50;5134125;27;20040;-65
2020/12/22 11:03:20;;;;;;;3.20;1.38;;;;;;;12.19;83.32;98970.75;5133860;27;20051;-65
2020/12/22 11:06:04;;;;;;;6.97;2.92;;;;;;;12.27;83.21;98976.69;5134139;27;20564;-65
2020/12/22 11:08:31;;;;;;;7.32;2.40;;;;;;;12.35;82.99;98983.66;5134382;27;20035;-65
2020/12/22 11:10:58;;;;;;;3.92;2.40;;;;;;;12.33;82.95;98980.38;5134309;27;20043;-65
2020/12/22 11:13:24;;;;;;;2.72;1.63;;;;;;;12.25;83.20;98986.69;5133726;27;20047;-65
2020/12/22 11:15:52;;;;;;;3.08;1.92;;;;;;;12.31;83.39;98979.75;5133962;27;20117;-65
2020/12/22 11:18:18;;;;;;;2.17;1.30;;;;;;;12.34;82.95;98996.09;5134117;27;20497;-65
2020/12/22 11:20:46;;;;;;;2.15;1.42;;;;;;;12.31;83.05;98999.13;5134016;27;20077;-65
2020/12/22 11:23:13;;;;;;;1.70;1.40;;;;;;;12.39;83.20;98995.47;5134006;27;20096;-65
2020/12/22 11:25:39;;;;;;;2.00;1.60;;;;;;;12.47;82.56;98983.88;5133608;27;20489;-65
2020/12/22 11:28:06;;;;;;;2.05;1.20;;;;;;;12.42;83.06;98995.09;5133838;27;20043;-65
2020/12/22 11:30:33;;;;;;;7.38;4.60;;;;;;;12.46;82.91;98995.53;5115280;27;20043;-65
2020/12/22 11:33:00;;;;;;;2.40;2.20;;;;;;;12.54;82.85;98982.06;5115304;27;20409;-65
2020/12/22 11:35:30;;;;;;;2.03;1.70;;;;;;;12.62;82.74;98989.84;5133449;27;20125;-65
2020/12/22 11:37:57;;;;;;;1.52;1.42;;;;;;;12.71;82.82;98990.47;5133723;27;20054;-65
2020/12/22 11:40:24;;;;;;;1.00;0.95;;;;;;;12.80;82.33;98986.59;5133516;27;20035;-65